createdAt,value
2019-03-09T00:02:16.993Z,58.80
2019-03-09T00:04:44.628Z,58.80
2019-03-09T00:07:12.217Z,58.80
2019-03-09T00:09:39.953Z,58.60
2019-03-09T00:12:07.484Z,58.50
2019-03-09T00:14:34.946Z,58.70
2019-03-09T00:17:02.422Z,58.60
2019-03-09T00:19:29.819Z,58.60
2019-03-09T00:21:57.339Z,58.70
2019-03-09T00:24:46.058Z,58.80
2019-03-09T00:27:30.174Z,58.80
2019-03-09T00:30:24.602Z,58.60
2019-03-09T00:32:52.044Z,59.20
2019-03-09T00:35:19.439Z,58.40
2019-03-09T00:37:46.855Z,58.60
2019-03-09T00:40:14.284Z,58.70
2019-03-09T00:42:42.113Z,58.70
2019-03-09T00:45:09.634Z,58.60
2019-03-09T00:47:37.054Z,58.60
2019-03-09T00:50:04.498Z,58.60
2019-03-09T00:52:32.186Z,58.50
2019-03-09T00:54:59.592Z,58.50
2019-03-09T00:57:27.087Z,58.40
2019-03-09T00:59:54.520Z,58.40
2019-03-09T01:02:21.955Z,58.40
2019-03-09T01:04:49.390Z,58.40
2019-03-09T01:07:16.872Z,58.40
2019-03-09T01:09:44.308Z,58.50
2019-03-09T01:12:11.710Z,58.50
2019-03-09T01:14:39.114Z,58.50
2019-03-09T01:17:06.570Z,58.50
2019-03-09T01:19:34.023Z,58.50
2019-03-09T01:22:01.425Z,58.50
2019-03-09T01:24:29.291Z,58.60
2019-03-09T01:26:56.730Z,58.50
2019-03-09T01:29:24.143Z,58.50
2019-03-09T01:31:51.575Z,58.50
2019-03-09T01:34:18.980Z,58.70
2019-03-09T01:36:46.471Z,58.60
2019-03-09T01:39:13.904Z,58.70
2019-03-09T01:41:41.338Z,58.70
2019-03-09T01:44:08.756Z,58.70
2019-03-09T01:46:36.267Z,58.70
2019-03-09T01:49:03.714Z,58.80
2019-03-09T01:51:31.257Z,58.70
2019-03-09T01:53:58.771Z,58.80
2019-03-09T01:56:26.096Z,59.40
2019-03-09T01:58:53.542Z,58.90
2019-03-09T02:01:21.101Z,58.80
2019-03-09T02:03:48.614Z,59.60
2019-03-09T02:06:16.039Z,58.90
2019-03-09T02:08:43.489Z,59.00
2019-03-09T02:11:10.897Z,58.90
2019-03-09T02:13:38.334Z,59.00
2019-03-09T02:16:05.779Z,58.90
2019-03-09T02:18:33.291Z,59.10
2019-03-09T02:21:00.734Z,59.10
2019-03-09T02:23:28.168Z,59.00
2019-03-09T02:25:55.651Z,59.10
2019-03-09T02:28:23.064Z,59.20
2019-03-09T02:30:50.568Z,59.20
2019-03-09T02:33:18.060Z,59.80
2019-03-09T02:35:45.478Z,59.20
2019-03-09T02:38:30.569Z,59.20
2019-03-09T02:40:57.972Z,59.10
2019-03-09T02:43:25.379Z,59.30
2019-03-09T02:45:52.817Z,59.20
2019-03-09T02:48:20.213Z,59.10
2019-03-09T02:50:56.901Z,59.10
2019-03-09T02:53:24.368Z,59.10
2019-03-09T02:55:51.779Z,59.10
2019-03-09T02:58:19.366Z,59.00
2019-03-09T03:00:49.591Z,59.00
2019-03-09T03:03:17.009Z,59.60
2019-03-09T03:05:44.482Z,58.90
2019-03-09T03:08:11.997Z,58.80
2019-03-09T03:10:39.407Z,58.80
2019-03-09T03:13:06.869Z,58.70
2019-03-09T03:15:34.332Z,58.70
2019-03-09T03:18:01.847Z,58.60
2019-03-09T03:20:29.354Z,58.70
2019-03-09T03:22:56.807Z,58.60
2019-03-09T03:25:24.292Z,58.50
2019-03-09T03:27:51.783Z,58.50
2019-03-09T03:30:19.345Z,58.60
2019-03-09T03:32:46.755Z,58.50
2019-03-09T03:35:14.313Z,58.50
2019-03-09T03:37:41.781Z,58.50
2019-03-09T03:40:09.236Z,58.40
2019-03-09T03:42:36.685Z,58.30
2019-03-09T03:45:04.092Z,58.20
2019-03-09T03:47:31.496Z,58.30
2019-03-09T03:49:58.924Z,58.30
2019-03-09T03:52:26.377Z,58.10
2019-03-09T03:54:54.042Z,58.10
2019-03-09T03:57:21.564Z,58.10
2019-03-09T03:59:49.089Z,58.10
2019-03-09T04:02:16.644Z,58.10
2019-03-09T04:04:44.147Z,58.00
2019-03-09T04:07:11.850Z,57.90
2019-03-09T04:09:39.333Z,58.00
2019-03-09T04:12:06.835Z,58.00
2019-03-09T04:14:34.292Z,58.10
2019-03-09T04:17:01.801Z,58.10
2019-03-09T04:19:29.293Z,58.10
2019-03-09T04:21:56.772Z,58.00
2019-03-09T04:24:24.329Z,58.00
2019-03-09T04:27:11.028Z,58.00
2019-03-09T04:29:38.535Z,57.80
2019-03-09T04:32:05.997Z,57.80
2019-03-09T04:34:33.542Z,57.90
2019-03-09T04:37:01.057Z,57.80
2019-03-09T04:39:28.531Z,58.00
2019-03-09T04:41:55.963Z,57.80
2019-03-09T04:44:23.420Z,58.00
2019-03-09T04:46:50.963Z,58.00
2019-03-09T04:49:18.410Z,58.00
2019-03-09T04:51:45.866Z,57.90
2019-03-09T04:54:13.336Z,57.90
2019-03-09T04:56:40.754Z,58.00
2019-03-09T04:59:08.218Z,58.00
2019-03-09T05:01:35.695Z,58.00
2019-03-09T05:04:03.117Z,57.80
2019-03-09T05:06:30.561Z,57.80
2019-03-09T05:08:57.980Z,57.80
2019-03-09T05:11:25.503Z,57.80
2019-03-09T05:13:52.968Z,57.90
2019-03-09T05:16:20.382Z,57.80
2019-03-09T05:18:47.891Z,57.80
2019-03-09T05:21:15.387Z,57.70
2019-03-09T05:23:42.902Z,57.80
2019-03-09T05:26:10.382Z,57.80
2019-03-09T05:28:37.899Z,57.60
2019-03-09T05:31:05.383Z,57.50
2019-03-09T05:33:32.977Z,57.60
2019-03-09T05:36:00.410Z,57.70
2019-03-09T05:38:27.832Z,57.50
2019-03-09T05:40:55.222Z,57.30
2019-03-09T05:43:22.694Z,57.40
2019-03-09T05:45:50.141Z,57.20
2019-03-09T05:48:17.729Z,57.30
2019-03-09T05:50:45.189Z,57.20
2019-03-09T05:53:12.871Z,57.30
2019-03-09T05:55:40.286Z,57.30
2019-03-09T05:58:07.765Z,57.50
2019-03-09T06:00:36.205Z,57.60
2019-03-09T06:03:03.598Z,57.60
2019-03-09T06:05:31.066Z,57.60
2019-03-09T06:07:58.522Z,57.70
2019-03-09T06:10:26.017Z,57.80
2019-03-09T06:12:53.461Z,57.80
2019-03-09T06:15:20.864Z,57.80
2019-03-09T06:17:48.273Z,57.90
2019-03-09T06:20:15.829Z,58.00
2019-03-09T06:22:43.243Z,57.80
2019-03-09T06:25:10.765Z,58.00
2019-03-09T06:27:38.220Z,57.70
2019-03-09T06:30:05.704Z,58.00
2019-03-09T06:32:33.182Z,57.80
2019-03-09T06:35:00.665Z,57.60
2019-03-09T06:37:28.062Z,57.40
2019-03-09T06:39:55.473Z,57.60
2019-03-09T06:42:22.875Z,57.50
2019-03-09T06:44:50.347Z,57.50
2019-03-09T06:47:18.588Z,57.40
2019-03-09T06:49:46.442Z,57.50
2019-03-09T06:52:14.004Z,57.30
2019-03-09T06:54:41.516Z,57.30
2019-03-09T06:57:13.989Z,57.20
2019-03-09T06:59:38.138Z,57.40
2019-03-09T07:02:05.633Z,57.40
2019-03-09T07:04:33.051Z,57.30
2019-03-09T07:07:00.481Z,57.30
2019-03-09T07:09:27.935Z,57.30
2019-03-09T07:11:55.393Z,57.30
2019-03-09T07:14:22.853Z,57.30
2019-03-09T07:16:50.258Z,57.20
2019-03-09T07:19:17.667Z,57.20
2019-03-09T07:21:45.102Z,57.20
2019-03-09T07:24:12.557Z,57.00
2019-03-09T07:26:40.233Z,57.10
2019-03-09T07:29:07.643Z,57.00
2019-03-09T07:31:35.159Z,56.80
2019-03-09T07:34:02.551Z,56.80
2019-03-09T07:36:29.974Z,56.60
2019-03-09T07:38:57.405Z,57.30
2019-03-09T07:41:24.879Z,56.40
2019-03-09T07:43:52.290Z,56.60
2019-03-09T07:46:19.737Z,56.80
2019-03-09T07:48:47.213Z,57.20
2019-03-09T07:51:14.820Z,58.60
2019-03-09T07:53:42.338Z,58.60
2019-03-09T07:56:09.797Z,58.40
2019-03-09T07:58:37.196Z,58.50
2019-03-09T08:01:04.803Z,59.30
2019-03-09T08:03:32.290Z,60.00
2019-03-09T08:05:59.737Z,59.60
2019-03-09T08:08:27.229Z,59.30
2019-03-09T08:10:54.780Z,58.90
2019-03-09T08:13:22.201Z,59.00
2019-03-09T08:15:49.600Z,58.60
2019-03-09T08:18:17.061Z,58.50
2019-03-09T08:20:44.475Z,58.30
2019-03-09T08:23:11.893Z,58.20
2019-03-09T08:25:39.509Z,58.10
2019-03-09T08:28:07.007Z,58.10
2019-03-09T08:30:34.464Z,57.80
2019-03-09T08:33:01.893Z,57.90
2019-03-09T08:35:29.351Z,58.10
2019-03-09T08:37:56.751Z,59.90
2019-03-09T08:40:24.209Z,59.40
2019-03-09T08:42:51.658Z,59.80
2019-03-09T08:45:20.220Z,60.10
2019-03-09T08:47:52.078Z,58.70
2019-03-09T08:50:16.777Z,58.20
2019-03-09T08:52:44.369Z,57.60
2019-03-09T08:55:11.831Z,57.30
2019-03-09T08:57:39.290Z,57.20
2019-03-09T09:00:06.689Z,57.60
2019-03-09T09:02:34.190Z,57.50
2019-03-09T09:05:01.669Z,57.40
2019-03-09T09:07:29.087Z,57.30
2019-03-09T09:09:56.539Z,57.40
2019-03-09T09:12:24.153Z,57.20
2019-03-09T09:14:51.671Z,57.30
2019-03-09T09:17:19.171Z,57.40
2019-03-09T09:19:46.589Z,57.40
2019-03-09T09:22:14.013Z,57.30
2019-03-09T09:24:41.526Z,57.30
2019-03-09T09:27:09.023Z,57.20
2019-03-09T09:29:36.491Z,57.30
2019-03-09T09:32:03.908Z,57.30
2019-03-09T09:34:31.381Z,57.30
2019-03-09T09:36:58.797Z,57.20
2019-03-09T09:39:26.251Z,57.30
2019-03-09T09:41:53.740Z,57.30
2019-03-09T09:44:21.148Z,57.30
2019-03-09T09:46:48.585Z,57.30
2019-03-09T09:49:15.981Z,57.50
2019-03-09T09:51:43.462Z,57.40
2019-03-09T09:54:10.933Z,57.70
2019-03-09T09:56:38.396Z,58.70
2019-03-09T09:59:05.850Z,59.40
2019-03-09T10:01:33.329Z,59.40
2019-03-09T10:04:00.733Z,59.70
2019-03-09T10:06:28.417Z,59.70
2019-03-09T10:08:55.887Z,59.80
2019-03-09T10:11:23.384Z,60.50
2019-03-09T10:13:50.828Z,60.60
2019-03-09T10:16:18.283Z,60.10
2019-03-09T10:18:45.730Z,59.50
2019-03-09T10:21:13.207Z,59.20
2019-03-09T10:23:40.620Z,58.80
2019-03-09T10:26:08.073Z,58.80
2019-03-09T10:28:35.899Z,58.70
2019-03-09T10:31:03.295Z,58.80
2019-03-09T10:33:30.775Z,58.80
2019-03-09T10:35:58.442Z,58.90
2019-03-09T10:38:27.962Z,58.70
2019-03-09T10:40:55.028Z,59.00
2019-03-09T10:43:22.476Z,59.10
2019-03-09T10:45:49.895Z,59.10
2019-03-09T10:48:17.327Z,58.90
2019-03-09T10:50:44.819Z,59.00
2019-03-09T10:53:12.437Z,59.20
2019-03-09T10:55:39.918Z,59.00
2019-03-09T10:58:07.373Z,59.00
2019-03-09T11:00:34.769Z,58.60
2019-03-09T11:03:02.259Z,58.90
2019-03-09T11:05:29.725Z,58.70
2019-03-09T11:07:57.131Z,58.60
2019-03-09T11:10:24.543Z,58.90
2019-03-09T11:12:52.101Z,58.50
2019-03-09T11:15:19.522Z,58.60
2019-03-09T11:17:46.991Z,58.40
2019-03-09T11:20:14.445Z,58.40
2019-03-09T11:22:42.003Z,58.50
2019-03-09T11:25:09.422Z,58.50
2019-03-09T11:27:36.966Z,58.40
2019-03-09T11:30:04.369Z,58.20
2019-03-09T11:32:31.806Z,57.90
2019-03-09T11:34:59.300Z,58.10
2019-03-09T11:37:26.746Z,58.10
2019-03-09T11:39:54.356Z,57.80
2019-03-09T11:42:21.957Z,57.80
2019-03-09T11:44:49.381Z,57.80
2019-03-09T11:47:17.221Z,57.90
2019-03-09T11:49:44.637Z,58.00
2019-03-09T11:52:19.557Z,58.10
2019-03-09T11:54:41.223Z,57.90
2019-03-09T11:57:08.634Z,57.90
2019-03-09T11:59:36.072Z,57.60
2019-03-09T12:02:03.645Z,57.70
2019-03-09T12:04:31.129Z,57.60
2019-03-09T12:06:58.551Z,57.40
2019-03-09T12:09:25.964Z,57.30
2019-03-09T12:11:53.551Z,57.30
2019-03-09T12:14:20.955Z,57.40
2019-03-09T12:16:48.390Z,57.20
2019-03-09T12:19:15.811Z,57.00
2019-03-09T12:21:43.332Z,57.10
2019-03-09T12:24:16.488Z,56.90
2019-03-09T12:26:40.832Z,56.90
2019-03-09T12:29:08.316Z,56.90
2019-03-09T12:31:35.879Z,57.00
2019-03-09T12:34:03.346Z,57.00
2019-03-09T12:36:30.773Z,56.80
2019-03-09T12:38:58.176Z,57.10
2019-03-09T12:41:25.583Z,57.00
2019-03-09T12:43:53.093Z,57.10
2019-03-09T12:46:20.659Z,57.60
2019-03-09T12:48:48.406Z,58.10
2019-03-09T12:51:15.874Z,58.30
2019-03-09T12:53:43.306Z,58.30
2019-03-09T12:56:10.788Z,58.30
2019-03-09T12:58:38.227Z,58.40
2019-03-09T13:01:05.733Z,58.40
2019-03-09T13:03:33.182Z,58.50
2019-03-09T13:06:00.602Z,58.30
2019-03-09T13:08:28.081Z,58.30
2019-03-09T13:10:56.148Z,58.10
2019-03-09T13:13:23.674Z,58.80
2019-03-09T13:15:51.192Z,58.20
2019-03-09T13:18:18.732Z,58.50
2019-03-09T13:20:46.143Z,58.30
2019-03-09T13:23:13.632Z,58.40
2019-03-09T13:25:41.033Z,58.00
2019-03-09T13:28:08.456Z,58.20
2019-03-09T13:30:35.964Z,58.30
2019-03-09T13:33:03.392Z,58.30
2019-03-09T13:35:30.878Z,58.30
2019-03-09T13:37:58.382Z,58.40
2019-03-09T13:40:25.783Z,58.50
2019-03-09T13:42:53.293Z,58.60
2019-03-09T13:45:20.782Z,58.70
2019-03-09T13:47:48.189Z,58.50
2019-03-09T13:50:15.692Z,58.60
2019-03-09T13:52:43.212Z,58.60
2019-03-09T13:55:10.758Z,58.60
2019-03-09T13:57:38.173Z,58.60
2019-03-09T14:00:05.613Z,58.70
2019-03-09T14:02:33.093Z,58.80
2019-03-09T14:05:00.492Z,58.70
2019-03-09T14:07:28.142Z,58.40
2019-03-09T14:09:55.613Z,58.40
2019-03-09T14:12:23.019Z,58.20
2019-03-09T14:14:50.436Z,58.20
2019-03-09T14:17:17.868Z,58.00
2019-03-09T14:19:45.376Z,58.10
2019-03-09T14:22:12.814Z,58.10
2019-03-09T14:24:40.292Z,58.30
2019-03-09T14:27:07.751Z,58.20
2019-03-09T14:29:35.324Z,58.30
2019-03-09T14:32:02.724Z,57.80
2019-03-09T14:34:30.258Z,58.10
2019-03-09T14:36:57.683Z,57.40
2019-03-09T14:39:25.208Z,57.70
2019-03-09T14:41:52.652Z,57.30
2019-03-09T14:44:20.084Z,57.40
2019-03-09T14:46:47.586Z,57.90
2019-03-09T14:49:15.079Z,57.40
2019-03-09T14:51:42.514Z,57.20
2019-03-09T14:54:09.922Z,57.40
2019-03-09T14:56:37.457Z,57.70
2019-03-09T14:59:04.883Z,56.20
2019-03-09T15:01:32.320Z,55.50
2019-03-09T15:04:00.003Z,55.20
2019-03-09T15:06:27.689Z,55.10
2019-03-09T15:08:55.214Z,54.70
2019-03-09T15:11:22.630Z,55.10
2019-03-09T15:13:49.967Z,54.70
2019-03-09T15:16:17.471Z,55.00
2019-03-09T15:18:44.946Z,55.30
2019-03-09T15:21:12.376Z,54.90
2019-03-09T15:23:39.899Z,54.80
2019-03-09T15:26:07.327Z,55.80
2019-03-09T15:28:34.720Z,56.40
2019-03-09T15:31:02.159Z,56.40
2019-03-09T15:33:29.588Z,56.70
2019-03-09T15:35:56.975Z,57.00
2019-03-09T15:38:24.414Z,56.90
2019-03-09T15:40:51.805Z,57.00
2019-03-09T15:43:19.372Z,57.30
2019-03-09T15:45:46.889Z,57.90
2019-03-09T15:48:14.287Z,57.70
2019-03-09T15:50:41.698Z,57.40
2019-03-09T15:53:09.195Z,56.90
2019-03-09T15:55:36.869Z,56.50
2019-03-09T15:58:04.339Z,56.20
2019-03-09T16:00:31.867Z,55.40
2019-03-09T16:02:59.295Z,55.70
2019-03-09T16:05:26.797Z,55.80
2019-03-09T16:07:54.225Z,55.60
2019-03-09T16:10:21.692Z,56.90
2019-03-09T16:12:49.142Z,57.40
2019-03-09T16:15:16.666Z,57.30
2019-03-09T16:17:44.137Z,57.20
2019-03-09T16:20:11.568Z,57.40
2019-03-09T16:22:39.099Z,57.60
2019-03-09T16:25:06.496Z,57.70
2019-03-09T16:27:34.040Z,57.70
2019-03-09T16:30:01.710Z,57.80
2019-03-09T16:32:29.210Z,57.30
2019-03-09T16:34:56.649Z,57.00
2019-03-09T16:37:24.197Z,56.90
2019-03-09T16:39:51.662Z,57.20
2019-03-09T16:42:20.977Z,57.30
2019-03-09T16:44:48.363Z,57.60
2019-03-09T16:47:15.775Z,57.40
2019-03-09T16:49:43.179Z,58.00
2019-03-09T16:52:10.623Z,56.90
2019-03-09T16:54:38.281Z,55.50
2019-03-09T16:57:05.737Z,54.90
2019-03-09T16:59:33.165Z,54.40
2019-03-09T17:02:00.768Z,54.00
2019-03-09T17:04:28.190Z,53.70
2019-03-09T17:06:55.694Z,53.50
2019-03-09T17:09:23.112Z,53.40
2019-03-09T17:11:50.512Z,54.00
2019-03-09T17:14:17.940Z,54.10
2019-03-09T17:16:45.391Z,53.90
2019-03-09T17:19:12.812Z,53.70
2019-03-09T17:21:40.318Z,53.70
2019-03-09T17:24:07.903Z,53.70
2019-03-09T17:26:35.449Z,53.70
2019-03-09T17:29:02.959Z,53.60
2019-03-09T17:31:30.372Z,53.60
2019-03-09T17:33:57.863Z,53.60
2019-03-09T17:36:25.451Z,53.50
2019-03-09T17:38:52.869Z,53.50
2019-03-09T17:41:20.316Z,53.50
2019-03-09T17:43:47.764Z,53.60
2019-03-09T17:46:15.163Z,53.80
2019-03-09T17:48:42.562Z,54.00
2019-03-09T17:51:09.993Z,53.80
2019-03-09T17:53:37.498Z,54.30
2019-03-09T17:56:04.930Z,54.60
2019-03-09T17:58:32.404Z,54.80
2019-03-09T18:00:59.775Z,54.50
2019-03-09T18:03:27.185Z,54.10
2019-03-09T18:05:54.689Z,54.10
2019-03-09T18:08:22.117Z,54.00
2019-03-09T18:10:49.524Z,54.10
2019-03-09T18:13:16.956Z,55.00
2019-03-09T18:15:44.332Z,54.50
2019-03-09T18:18:11.811Z,54.30
2019-03-09T18:20:39.339Z,54.30
2019-03-09T18:23:06.927Z,54.20
2019-03-09T18:25:34.318Z,54.30
2019-03-09T18:28:02.050Z,54.40
2019-03-09T18:30:29.444Z,53.70
2019-03-09T18:32:56.836Z,53.50
2019-03-09T18:35:24.267Z,53.30
2019-03-09T18:37:51.658Z,53.10
2019-03-09T18:40:19.153Z,52.90
2019-03-09T18:42:46.628Z,52.90
2019-03-09T18:45:14.062Z,52.60
2019-03-09T18:47:41.465Z,52.70
2019-03-09T18:50:08.886Z,52.50
2019-03-09T18:52:36.332Z,52.40
2019-03-09T18:55:03.745Z,52.60
2019-03-09T18:57:31.252Z,52.50
2019-03-09T18:59:58.641Z,52.40
2019-03-09T19:02:26.037Z,52.50
2019-03-09T19:04:53.500Z,52.50
2019-03-09T19:07:20.963Z,52.40
2019-03-09T19:09:48.341Z,52.40
2019-03-09T19:12:15.758Z,53.30
2019-03-09T19:14:43.184Z,52.50
2019-03-09T19:17:10.670Z,52.40
2019-03-09T19:19:38.080Z,52.30
2019-03-09T19:22:05.511Z,52.60
2019-03-09T19:24:32.901Z,53.40
2019-03-09T19:27:00.333Z,54.10
2019-03-09T19:29:27.744Z,54.20
2019-03-09T19:31:55.175Z,54.30
2019-03-09T19:34:22.640Z,55.10
2019-03-09T19:36:50.084Z,54.10
2019-03-09T19:39:17.562Z,54.00
2019-03-09T19:41:45.041Z,54.30
2019-03-09T19:44:12.478Z,53.70
2019-03-09T19:46:39.884Z,53.60
2019-03-09T19:49:07.398Z,53.60
2019-03-09T19:51:34.873Z,53.20
2019-03-09T19:54:02.317Z,53.00
2019-03-09T19:56:29.789Z,53.10
2019-03-09T19:58:57.179Z,53.50
2019-03-09T20:01:24.602Z,52.80
2019-03-09T20:03:51.995Z,52.80
2019-03-09T20:06:19.404Z,52.90
2019-03-09T20:08:46.953Z,53.00
2019-03-09T20:11:14.404Z,52.80
2019-03-09T20:13:41.804Z,52.90
2019-03-09T20:16:09.361Z,53.00
2019-03-09T20:18:36.790Z,53.00
2019-03-09T20:21:04.258Z,53.00
2019-03-09T20:23:31.797Z,53.10
2019-03-09T20:25:59.453Z,53.40
2019-03-09T20:28:26.863Z,53.10
2019-03-09T20:30:54.313Z,53.10
2019-03-09T20:33:21.803Z,53.00
2019-03-09T20:35:49.227Z,52.80
2019-03-09T20:38:16.675Z,53.00
2019-03-09T20:40:44.179Z,52.90
2019-03-09T20:43:11.603Z,52.80
2019-03-09T20:45:39.032Z,52.90
2019-03-09T20:48:06.496Z,52.90
2019-03-09T20:50:33.898Z,52.70
2019-03-09T20:53:01.328Z,52.70
2019-03-09T20:55:28.724Z,52.80
2019-03-09T20:57:56.235Z,52.60
2019-03-09T21:00:23.693Z,52.60
2019-03-09T21:02:51.076Z,52.40
2019-03-09T21:05:18.486Z,52.30
2019-03-09T21:07:45.980Z,52.40
2019-03-09T21:10:13.433Z,52.30
2019-03-09T21:12:40.916Z,52.30
2019-03-09T21:15:08.345Z,52.20
2019-03-09T21:17:35.738Z,52.30
2019-03-09T21:20:03.267Z,52.80
2019-03-09T21:22:30.666Z,52.30
2019-03-09T21:24:58.053Z,52.10
2019-03-09T21:27:25.526Z,52.10
2019-03-09T21:29:52.949Z,52.20
2019-03-09T21:32:20.358Z,52.30
2019-03-09T21:34:47.788Z,52.20
2019-03-09T21:37:15.231Z,52.10
2019-03-09T21:39:42.794Z,52.10
2019-03-09T21:42:10.308Z,52.20
2019-03-09T21:44:37.740Z,52.00
2019-03-09T21:47:05.217Z,51.50
2019-03-09T21:49:32.687Z,51.50
2019-03-09T21:52:00.189Z,51.30
2019-03-09T21:54:27.680Z,51.20
2019-03-09T21:56:55.810Z,51.20
2019-03-09T21:59:23.213Z,51.30
2019-03-09T22:01:50.955Z,51.10
2019-03-09T22:04:18.507Z,51.00
2019-03-09T22:06:45.928Z,50.90
2019-03-09T22:09:13.310Z,50.80
2019-03-09T22:11:40.725Z,51.10
2019-03-09T22:14:08.158Z,52.60
2019-03-09T22:16:35.532Z,52.70
2019-03-09T22:19:03.071Z,53.20
2019-03-09T22:21:30.573Z,53.80
2019-03-09T22:23:58.020Z,53.70
2019-03-09T22:26:25.433Z,53.80
2019-03-09T22:28:52.846Z,53.80
2019-03-09T22:31:20.248Z,53.80
2019-03-09T22:33:47.676Z,54.20
2019-03-09T22:36:15.027Z,54.20
2019-03-09T22:38:42.484Z,53.90
2019-03-09T22:41:09.890Z,53.90
2019-03-09T22:43:37.300Z,54.20
2019-03-09T22:46:04.751Z,54.90
2019-03-09T22:48:32.167Z,54.40
2019-03-09T22:50:59.651Z,53.80
2019-03-09T22:53:27.186Z,54.50
2019-03-09T22:55:54.572Z,54.40
2019-03-09T22:58:21.967Z,54.80
2019-03-09T23:00:49.798Z,54.10
2019-03-09T23:03:17.748Z,54.60
2019-03-09T23:05:45.270Z,55.00
2019-03-09T23:08:12.788Z,55.00
2019-03-09T23:10:40.481Z,55.20
2019-03-09T23:13:07.915Z,55.30
2019-03-09T23:15:35.367Z,55.50
2019-03-09T23:18:02.834Z,55.40
2019-03-09T23:20:30.263Z,55.70
2019-03-09T23:22:57.676Z,55.90
2019-03-09T23:25:25.183Z,55.80
2019-03-09T23:27:52.606Z,55.90
2019-03-09T23:30:20.043Z,55.80
2019-03-09T23:32:47.431Z,56.10
2019-03-09T23:35:14.870Z,55.90
2019-03-09T23:37:42.296Z,56.00
2019-03-09T23:40:10.053Z,56.10
2019-03-09T23:42:37.466Z,56.00
2019-03-09T23:45:04.875Z,56.20
2019-03-09T23:47:32.303Z,56.20
2019-03-09T23:50:00.296Z,56.30
2019-03-09T23:52:27.811Z,56.50
2019-03-09T23:54:55.241Z,56.40
2019-03-09T23:57:22.650Z,56.60
2019-03-09T23:59:50.088Z,57.00
